createdAt,value
2023-01-11T00:01:22.707Z,83.70
2023-01-11T00:02:57.231Z,83.16
2023-01-11T00:04:30.533Z,83.14
2023-01-11T00:06:02.460Z,82.78
2023-01-11T00:07:34.177Z,82.94
2023-01-11T00:09:05.802Z,82.42
2023-01-11T00:10:37.463Z,82.40
2023-01-11T00:12:12.492Z,82.21
2023-01-11T00:13:45.397Z,82.47
2023-01-11T00:15:17.028Z,81.81
2023-01-11T00:16:50.206Z,82.27
2023-01-11T00:18:21.763Z,82.00
2023-01-11T00:19:53.732Z,82.85
2023-01-11T00:21:26.742Z,83.63
2023-01-11T00:22:58.417Z,83.08
2023-01-11T00:24:30.028Z,83.47
2023-01-11T00:26:02.583Z,84.21
2023-01-11T00:27:34.160Z,84.54
2023-01-11T00:29:05.763Z,85.07
2023-01-11T00:30:37.399Z,84.31
2023-01-11T00:32:10.323Z,85.15
2023-01-11T00:33:41.898Z,84.72
2023-01-11T00:35:13.528Z,84.22
2023-01-11T00:36:45.087Z,83.72
2023-01-11T00:38:36.601Z,82.77
2023-01-11T00:40:09.185Z,80.31
2023-01-11T00:41:59.783Z,79.66
2023-01-11T00:43:49.908Z,78.81
2023-01-11T00:45:40.241Z,80.10
2023-01-11T00:47:33.259Z,81.35
2023-01-11T00:49:04.871Z,80.52
2023-01-11T00:50:38.345Z,80.48
2023-01-11T00:52:10.223Z,81.00
2023-01-11T00:53:41.832Z,81.21
2023-01-11T00:55:13.431Z,81.90
2023-01-11T00:56:45.111Z,82.41
2023-01-11T00:58:16.717Z,83.29
2023-01-11T00:59:48.331Z,83.73
2023-01-11T01:01:19.930Z,83.85
2023-01-11T01:02:52.964Z,84.17
2023-01-11T01:04:24.813Z,83.69
2023-01-11T01:05:56.441Z,83.72
2023-01-11T01:07:28.027Z,84.68
2023-01-11T01:09:00.172Z,84.75
2023-01-11T01:10:31.754Z,85.00
2023-01-11T01:12:04.597Z,85.39
2023-01-11T01:13:54.792Z,85.80
2023-01-11T01:15:26.458Z,86.64
2023-01-11T01:16:59.148Z,86.30
2023-01-11T01:18:32.130Z,86.85
2023-01-11T01:20:04.541Z,86.71
2023-01-11T01:21:37.354Z,87.46
2023-01-11T01:23:08.937Z,86.56
2023-01-11T01:24:40.711Z,86.55
2023-01-11T01:26:12.312Z,86.21
2023-01-11T01:27:43.871Z,85.52
2023-01-11T01:29:15.928Z,86.38
2023-01-11T01:30:50.236Z,85.32
2023-01-11T01:32:21.806Z,84.71
2023-01-11T01:33:54.753Z,83.70
2023-01-11T01:35:26.331Z,83.88
2023-01-11T01:36:57.910Z,84.18
2023-01-11T01:38:29.522Z,84.03
2023-01-11T01:40:01.085Z,83.70
2023-01-11T01:41:32.757Z,84.51
2023-01-11T01:43:05.302Z,83.82
2023-01-11T01:45:06.159Z,84.28
2023-01-11T01:46:37.803Z,84.26
2023-01-11T01:48:10.245Z,84.99
2023-01-11T01:49:43.219Z,83.93
2023-01-11T01:51:17.596Z,84.24
2023-01-11T01:52:50.282Z,83.83
2023-01-11T01:54:23.282Z,82.79
2023-01-11T01:55:56.158Z,84.76
2023-01-11T01:57:29.053Z,85.29
2023-01-11T01:59:02.249Z,85.47
2023-01-11T02:00:33.913Z,85.13
2023-01-11T02:02:05.499Z,83.76
2023-01-11T02:03:37.101Z,83.20
2023-01-11T02:05:10.441Z,81.48
2023-01-11T02:06:42.104Z,82.11
2023-01-11T02:08:17.167Z,82.50
2023-01-11T02:09:50.584Z,82.89
2023-01-11T02:11:31.196Z,80.16
2023-01-11T02:13:05.461Z,75.22
2023-01-11T02:14:37.337Z,76.56
2023-01-11T02:16:08.995Z,73.42
2023-01-11T02:17:40.645Z,75.78
2023-01-11T02:19:17.326Z,73.78
2023-01-11T02:20:58.341Z,70.80
2023-01-11T02:23:03.178Z,71.26
2023-01-11T02:24:55.999Z,71.60
2023-01-11T02:26:47.808Z,71.52
2023-01-11T02:28:21.178Z,72.50
2023-01-11T02:29:58.612Z,75.20
2023-01-11T02:31:31.787Z,75.45
2023-01-11T02:33:07.698Z,72.89
2023-01-11T02:34:41.987Z,72.18
2023-01-11T02:36:17.849Z,71.75
2023-01-11T02:37:53.822Z,72.24
2023-01-11T02:39:30.983Z,71.87
2023-01-11T02:41:05.358Z,73.68
2023-01-11T02:42:56.452Z,74.39
2023-01-11T02:44:53.704Z,76.32
2023-01-11T02:46:29.428Z,74.12
2023-01-11T02:48:02.305Z,74.79
2023-01-11T02:49:35.846Z,73.06
2023-01-11T02:51:09.944Z,74.90
2023-01-11T02:52:45.203Z,76.34
2023-01-11T02:54:18.621Z,74.78
2023-01-11T02:55:52.024Z,75.71
2023-01-11T02:57:23.584Z,75.99
2023-01-11T02:58:55.727Z,76.04
2023-01-11T03:00:28.653Z,77.13
2023-01-11T03:02:00.544Z,75.11
2023-01-11T03:03:33.720Z,73.59
2023-01-11T03:05:11.352Z,73.41
2023-01-11T03:06:42.982Z,75.66
2023-01-11T03:08:25.902Z,73.07
2023-01-11T03:10:03.582Z,75.03
2023-01-11T03:12:03.116Z,72.62
2023-01-11T03:13:41.359Z,73.79
2023-01-11T03:15:21.911Z,75.42
2023-01-11T03:16:59.351Z,71.78
2023-01-11T03:18:36.021Z,73.14
2023-01-11T03:20:09.656Z,73.19
2023-01-11T03:21:48.148Z,73.76
2023-01-11T03:23:22.324Z,73.86
2023-01-11T03:24:57.682Z,73.85
2023-01-11T03:26:33.233Z,73.02
2023-01-11T03:28:09.582Z,74.10
2023-01-11T03:29:47.078Z,73.64
2023-01-11T03:31:20.738Z,73.72
2023-01-11T03:32:54.915Z,76.33
2023-01-11T03:34:29.831Z,75.77
2023-01-11T03:36:04.271Z,73.15
2023-01-11T03:37:37.320Z,74.90
2023-01-11T03:39:10.137Z,76.04
2023-01-11T03:40:44.526Z,76.14
2023-01-11T03:42:16.956Z,77.13
2023-01-11T03:43:48.540Z,76.71
2023-01-11T03:45:20.156Z,78.25
2023-01-11T03:46:53.099Z,77.66
2023-01-11T03:48:27.757Z,77.08
2023-01-11T03:50:01.034Z,77.67
2023-01-11T03:51:35.051Z,77.98
2023-01-11T03:53:06.695Z,78.25
2023-01-11T03:54:38.383Z,77.24
2023-01-11T03:56:10.629Z,77.80
2023-01-11T03:57:43.872Z,79.25
2023-01-11T03:59:15.466Z,79.80
2023-01-11T04:00:47.071Z,80.44
2023-01-11T04:02:19.631Z,79.01
2023-01-11T04:03:52.631Z,79.68
2023-01-11T04:05:24.261Z,80.12
2023-01-11T04:06:55.955Z,80.84
2023-01-11T04:08:27.591Z,79.87
2023-01-11T04:09:59.238Z,79.83
2023-01-11T04:11:30.919Z,80.53
2023-01-11T04:13:02.509Z,81.46
2023-01-11T04:14:34.223Z,81.73
2023-01-11T04:16:06.556Z,82.25
2023-01-11T04:17:38.175Z,82.11
2023-01-11T04:19:11.130Z,82.90
2023-01-11T04:20:42.746Z,82.61
2023-01-11T04:22:14.364Z,82.68
2023-01-11T04:23:45.960Z,82.42
2023-01-11T04:25:17.507Z,82.71
2023-01-11T04:26:49.057Z,82.92
2023-01-11T04:28:20.625Z,82.78
2023-01-11T04:29:52.263Z,83.81
2023-01-11T04:31:24.083Z,83.72
2023-01-11T04:32:57.341Z,84.17
2023-01-11T04:34:30.280Z,84.56
2023-01-11T04:36:04.552Z,84.78
2023-01-11T04:37:36.160Z,84.00
2023-01-11T04:39:10.640Z,84.01
2023-01-11T04:40:42.238Z,84.73
2023-01-11T04:42:20.030Z,84.66
2023-01-11T04:43:54.199Z,84.68
2023-01-11T04:45:25.896Z,84.78
2023-01-11T04:46:57.473Z,84.30
2023-01-11T04:48:29.030Z,84.25
2023-01-11T04:50:01.969Z,83.94
2023-01-11T04:51:33.540Z,84.16
2023-01-11T04:53:05.104Z,84.58
2023-01-11T04:54:36.692Z,84.78
2023-01-11T04:56:08.427Z,85.27
2023-01-11T04:57:39.996Z,84.68
2023-01-11T04:59:11.567Z,84.55
2023-01-11T05:00:43.295Z,84.47
2023-01-11T05:02:15.072Z,84.60
2023-01-11T05:03:46.836Z,84.75
2023-01-11T05:05:19.899Z,84.52
2023-01-11T05:06:51.526Z,84.69
2023-01-11T05:08:23.593Z,84.58
2023-01-11T05:09:55.215Z,84.43
2023-01-11T05:11:26.863Z,84.25
2023-01-11T05:12:58.418Z,85.02
2023-01-11T05:14:30.037Z,84.70
2023-01-11T05:16:01.616Z,85.41
2023-01-11T05:17:33.254Z,85.68
2023-01-11T05:19:04.956Z,85.25
2023-01-11T05:20:37.853Z,86.51
2023-01-11T05:22:09.672Z,87.25
2023-01-11T05:23:41.315Z,86.80
2023-01-11T05:25:12.843Z,83.18
2023-01-11T05:26:44.782Z,84.85
2023-01-11T05:28:16.354Z,85.47
2023-01-11T05:29:47.980Z,85.82
2023-01-11T05:31:19.715Z,85.39
2023-01-11T05:32:51.677Z,85.51
2023-01-11T05:34:23.265Z,84.28
2023-01-11T05:35:59.104Z,85.37
2023-01-11T05:37:30.773Z,85.79
2023-01-11T05:39:02.395Z,85.87
2023-01-11T05:40:33.979Z,85.17
2023-01-11T05:42:05.662Z,84.84
2023-01-11T05:43:57.604Z,83.66
2023-01-11T05:45:29.237Z,82.73
2023-01-11T05:47:00.945Z,82.41
2023-01-11T05:48:32.491Z,83.46
2023-01-11T05:50:04.751Z,83.07
2023-01-11T05:51:40.432Z,82.00
2023-01-11T05:53:12.041Z,81.63
2023-01-11T05:54:43.715Z,77.94
2023-01-11T05:56:15.272Z,77.97
2023-01-11T05:57:47.115Z,78.16
2023-01-11T05:59:18.774Z,77.43
2023-01-11T06:00:50.433Z,80.05
2023-01-11T06:02:22.142Z,79.94
2023-01-11T06:03:53.822Z,78.97
2023-01-11T06:05:25.380Z,79.69
2023-01-11T06:06:58.332Z,80.43
2023-01-11T06:08:29.953Z,81.08
2023-01-11T06:10:01.585Z,80.35
2023-01-11T06:11:33.156Z,80.79
2023-01-11T06:13:23.173Z,80.82
2023-01-11T06:14:54.755Z,80.50
2023-01-11T06:16:26.482Z,81.03
2023-01-11T06:17:58.055Z,81.24
2023-01-11T06:19:29.633Z,81.20
2023-01-11T06:21:01.292Z,82.79
2023-01-11T06:22:34.211Z,82.37
2023-01-11T06:24:06.335Z,84.97
2023-01-11T06:25:37.930Z,83.46
2023-01-11T06:27:09.603Z,83.06
2023-01-11T06:28:41.276Z,79.75
2023-01-11T06:30:13.637Z,80.52
2023-01-11T06:31:45.265Z,81.17
2023-01-11T06:33:16.930Z,80.92
2023-01-11T06:34:48.493Z,80.20
2023-01-11T06:36:20.135Z,80.51
2023-01-11T06:37:53.084Z,81.06
2023-01-11T06:39:24.665Z,80.88
2023-01-11T06:40:57.286Z,80.88
2023-01-11T06:42:28.834Z,81.01
2023-01-11T06:44:00.407Z,80.94
2023-01-11T06:45:32.017Z,80.50
2023-01-11T06:47:03.669Z,81.27
2023-01-11T06:48:35.260Z,79.22
2023-01-11T06:50:08.276Z,79.13
2023-01-11T06:51:39.869Z,79.37
2023-01-11T06:53:13.910Z,79.06
2023-01-11T06:54:45.487Z,78.25
2023-01-11T06:56:19.066Z,79.47
2023-01-11T06:57:50.798Z,79.96
2023-01-11T06:59:22.396Z,79.55
2023-01-11T07:00:55.685Z,78.89
2023-01-11T07:02:27.522Z,78.26
2023-01-11T07:03:59.156Z,78.34
2023-01-11T07:05:31.930Z,79.13
2023-01-11T07:07:03.586Z,78.74
2023-01-11T07:08:38.188Z,79.46
2023-01-11T07:10:11.233Z,79.60
2023-01-11T07:11:42.813Z,79.59
2023-01-11T07:13:17.536Z,78.62
2023-01-11T07:14:49.470Z,78.97
2023-01-11T07:16:21.121Z,78.63
2023-01-11T07:17:54.099Z,78.66
2023-01-11T07:19:25.922Z,78.22
2023-01-11T07:20:57.503Z,80.99
2023-01-11T07:22:29.171Z,81.93
2023-01-11T07:24:02.496Z,82.37
2023-01-11T07:25:34.063Z,83.16
2023-01-11T07:27:05.650Z,82.47
2023-01-11T07:28:37.252Z,82.39
2023-01-11T07:30:10.099Z,81.71
2023-01-11T07:31:41.849Z,81.78
2023-01-11T07:33:14.116Z,81.86
2023-01-11T07:34:45.791Z,81.44
2023-01-11T07:36:17.368Z,81.99
2023-01-11T07:37:49.005Z,83.76
2023-01-11T07:39:26.847Z,83.46
2023-01-11T07:41:23.603Z,82.37
2023-01-11T07:43:13.731Z,82.68
2023-01-11T07:44:45.477Z,82.40
2023-01-11T07:46:17.134Z,83.08
2023-01-11T07:47:49.870Z,82.98
2023-01-11T07:49:21.514Z,81.62
2023-01-11T07:50:53.285Z,80.93
2023-01-11T07:52:24.842Z,81.04
2023-01-11T07:53:56.469Z,82.57
2023-01-11T07:55:29.429Z,82.45
2023-01-11T07:57:01.038Z,82.28
2023-01-11T07:58:32.639Z,80.52
2023-01-11T08:00:04.911Z,81.46
2023-01-11T08:01:37.033Z,82.11
2023-01-11T08:03:08.747Z,81.84
2023-01-11T08:04:40.488Z,80.83
2023-01-11T08:06:12.078Z,80.76
2023-01-11T08:07:43.607Z,80.55
2023-01-11T08:09:15.143Z,79.48
2023-01-11T08:11:08.042Z,78.93
2023-01-11T08:13:02.240Z,79.04
2023-01-11T08:14:41.224Z,77.03
2023-01-11T08:16:12.813Z,77.15
2023-01-11T08:17:44.420Z,77.92
2023-01-11T08:19:16.163Z,77.70
2023-01-11T08:20:47.825Z,77.24
2023-01-11T08:22:19.426Z,78.06
2023-01-11T08:23:53.030Z,78.05
2023-01-11T08:25:24.732Z,77.87
2023-01-11T08:26:57.690Z,77.29
2023-01-11T08:28:29.258Z,76.42
2023-01-11T08:30:00.932Z,76.00
2023-01-11T08:31:32.509Z,76.58
2023-01-11T08:33:04.844Z,76.56
2023-01-11T08:34:36.456Z,77.38
2023-01-11T08:36:09.892Z,78.99
2023-01-11T08:37:41.581Z,79.57
2023-01-11T08:39:13.151Z,80.17
2023-01-11T08:40:47.721Z,80.17
2023-01-11T08:42:20.672Z,78.93
2023-01-11T08:43:52.439Z,79.85
2023-01-11T08:45:24.023Z,79.49
2023-01-11T08:46:55.715Z,80.07
2023-01-11T08:48:27.295Z,80.54
2023-01-11T08:49:58.971Z,80.70
2023-01-11T08:51:30.531Z,80.17
2023-01-11T08:53:02.093Z,80.08
2023-01-11T08:54:33.695Z,78.91
2023-01-11T08:56:05.953Z,79.94
2023-01-11T08:57:38.921Z,78.16
2023-01-11T08:59:11.521Z,77.45
2023-01-11T09:00:43.591Z,78.50
2023-01-11T09:02:15.235Z,78.67
2023-01-11T09:03:46.847Z,79.98
2023-01-11T09:05:18.551Z,79.60
2023-01-11T09:06:50.198Z,80.40
2023-01-11T09:08:21.780Z,80.26
2023-01-11T09:09:53.612Z,79.31
2023-01-11T09:11:43.931Z,79.35
2023-01-11T09:13:16.856Z,78.66
2023-01-11T09:14:48.495Z,78.29
2023-01-11T09:16:20.125Z,77.63
2023-01-11T09:17:51.930Z,78.69
2023-01-11T09:19:23.633Z,78.21
2023-01-11T09:20:55.228Z,77.97
2023-01-11T09:22:27.510Z,80.32
2023-01-11T09:23:59.075Z,78.47
2023-01-11T09:25:30.766Z,77.79
2023-01-11T09:27:02.569Z,78.79
2023-01-11T09:28:35.578Z,78.81
2023-01-11T09:30:08.604Z,79.11
2023-01-11T09:31:40.488Z,79.03
2023-01-11T09:33:12.088Z,77.64
2023-01-11T09:34:46.802Z,78.32
2023-01-11T09:36:21.730Z,79.74
2023-01-11T09:37:55.625Z,79.80
2023-01-11T09:39:28.759Z,79.73
2023-01-11T09:41:05.512Z,80.58
2023-01-11T09:42:39.472Z,79.54
2023-01-11T09:44:16.418Z,78.83
2023-01-11T09:45:51.049Z,81.01
2023-01-11T09:47:30.232Z,79.23
2023-01-11T09:49:03.421Z,81.03
2023-01-11T09:50:41.707Z,79.40
2023-01-11T09:52:18.474Z,80.30
2023-01-11T09:53:50.818Z,79.96
2023-01-11T09:55:28.047Z,79.39
2023-01-11T09:57:02.123Z,78.66
2023-01-11T09:58:42.733Z,79.39
2023-01-11T10:00:22.070Z,80.48
2023-01-11T10:01:55.718Z,80.40
2023-01-11T10:04:16.277Z,79.11
2023-01-11T10:05:56.490Z,80.73
2023-01-11T10:07:38.021Z,79.02
2023-01-11T10:18:26.398Z,78.97
2023-01-11T10:18:38.577Z,78.23
2023-01-11T10:19:33.506Z,78.28
2023-01-11T10:21:05.722Z,77.58
2023-01-11T10:22:40.972Z,78.69
2023-01-11T10:24:17.175Z,79.00
2023-01-11T10:25:51.779Z,77.63
2023-01-11T10:27:27.693Z,77.31
2023-01-11T10:29:14.973Z,77.86
2023-01-11T10:31:08.180Z,78.04
2023-01-11T10:32:48.118Z,76.73
2023-01-11T10:34:38.529Z,76.58
2023-01-11T10:36:28.712Z,76.47
2023-01-11T10:38:31.176Z,77.86
2023-01-11T10:40:24.208Z,76.43
2023-01-11T10:42:03.837Z,77.07
2023-01-11T10:43:37.546Z,77.87
2023-01-11T10:45:13.191Z,77.09
2023-01-11T10:46:46.118Z,76.87
2023-01-11T10:48:23.655Z,76.67
2023-01-11T10:49:57.449Z,76.42
2023-01-11T10:51:32.258Z,76.50
2023-01-11T10:53:07.154Z,76.45
2023-01-11T10:54:39.544Z,76.34
2023-01-11T10:56:21.471Z,77.54
2023-01-11T10:58:02.089Z,77.67
2023-01-11T10:59:43.666Z,76.79
2023-01-11T11:01:20.483Z,77.20
2023-01-11T11:03:01.859Z,76.68
2023-01-11T11:04:51.799Z,75.63
2023-01-11T11:06:28.232Z,77.00
2023-01-11T11:08:01.900Z,74.73
2023-01-11T11:09:36.632Z,76.62
2023-01-11T11:11:10.952Z,77.34
2023-01-11T11:12:46.256Z,78.51
2023-01-11T11:14:20.340Z,78.47
2023-01-11T11:15:55.105Z,79.06
2023-01-11T11:17:29.406Z,79.25
2023-01-11T11:19:01.123Z,79.48
2023-01-11T11:20:34.226Z,79.28
2023-01-11T11:22:05.944Z,78.76
2023-01-11T11:23:37.565Z,79.99
2023-01-11T11:25:14.242Z,79.37
2023-01-11T11:26:47.696Z,80.45
2023-01-11T11:28:26.932Z,80.46
2023-01-11T11:29:58.612Z,80.85
2023-01-11T11:31:30.288Z,81.05
2023-01-11T11:33:02.666Z,81.03
2023-01-11T11:34:34.245Z,81.43
2023-01-11T11:36:08.835Z,82.17
2023-01-11T11:37:42.053Z,82.40
2023-01-11T11:39:19.535Z,81.57
2023-01-11T11:40:58.098Z,80.67
2023-01-11T11:42:29.731Z,82.48
2023-01-11T11:44:17.378Z,83.10
2023-01-11T11:45:53.254Z,83.55
2023-01-11T11:47:24.887Z,83.19
2023-01-11T11:49:13.116Z,84.38
2023-01-11T11:50:45.851Z,84.60
2023-01-11T11:53:13.733Z,84.27
2023-01-11T11:55:24.715Z,84.12
2023-01-11T11:56:57.389Z,85.44
2023-01-11T11:58:28.942Z,84.14
2023-01-11T12:00:02.215Z,85.35
2023-01-11T12:01:34.980Z,84.70
2023-01-11T12:03:10.938Z,83.60
2023-01-11T12:04:45.014Z,85.24
2023-01-11T12:06:21.334Z,85.31
2023-01-11T12:07:55.605Z,86.84
2023-01-11T12:09:28.590Z,86.70
2023-01-11T12:11:01.250Z,85.52
2023-01-11T12:12:34.262Z,85.80
2023-01-11T12:14:16.446Z,86.37
2023-01-11T12:15:55.367Z,86.52
2023-01-11T12:17:27.017Z,85.96
2023-01-11T12:18:58.625Z,86.49
2023-01-11T12:20:32.463Z,86.87
2023-01-11T12:22:10.252Z,87.16
2023-01-11T12:23:43.278Z,86.49
2023-01-11T12:25:21.682Z,86.63
2023-01-11T12:26:58.156Z,86.39
2023-01-11T12:28:36.109Z,87.02
2023-01-11T12:30:14.232Z,87.64
2023-01-11T12:31:53.837Z,87.21
2023-01-11T12:33:30.042Z,87.75
2023-01-11T12:35:08.803Z,88.20
2023-01-11T12:36:44.016Z,87.73
2023-01-11T12:38:34.928Z,88.56
2023-01-11T12:40:12.291Z,88.43
2023-01-11T12:41:56.191Z,87.96
2023-01-11T12:43:35.209Z,88.29
2023-01-11T12:45:20.932Z,87.98
2023-01-11T12:46:58.264Z,87.69
2023-01-11T12:48:41.499Z,87.59
2023-01-11T12:50:16.627Z,87.41
2023-01-11T12:52:11.940Z,87.81
2023-01-11T12:53:59.333Z,88.39
2023-01-11T12:55:39.427Z,88.51
2023-01-11T12:57:14.261Z,88.39
2023-01-11T12:58:49.864Z,88.42
2023-01-11T13:00:30.326Z,88.22
2023-01-11T13:02:08.118Z,88.51
2023-01-11T13:03:55.314Z,88.96
2023-01-11T13:05:27.911Z,88.67
2023-01-11T13:07:03.102Z,88.94
2023-01-11T13:08:41.622Z,88.73
2023-01-11T13:10:20.951Z,88.66
2023-01-11T13:11:56.259Z,88.79
2023-01-11T13:13:30.582Z,88.57
2023-01-11T13:15:21.411Z,88.72
2023-01-11T13:16:55.162Z,88.96
2023-01-11T13:18:31.385Z,89.07
2023-01-11T13:20:12.410Z,88.76
2023-01-11T13:21:44.710Z,89.18
2023-01-11T13:23:18.574Z,89.09
2023-01-11T13:24:50.779Z,88.82
2023-01-11T13:26:24.843Z,88.95
2023-01-11T13:27:59.090Z,89.18
2023-01-11T13:29:31.601Z,89.36
2023-01-11T13:31:07.565Z,88.92
2023-01-11T13:32:40.133Z,89.34
2023-01-11T13:34:13.128Z,89.63
2023-01-11T13:35:47.012Z,89.77
2023-01-11T13:37:19.850Z,90.17
2023-01-11T13:38:54.990Z,90.19
2023-01-11T13:40:27.286Z,90.76
2023-01-11T13:41:59.964Z,90.51
2023-01-11T13:43:36.201Z,90.54
2023-01-11T13:45:14.319Z,90.35
2023-01-11T13:46:52.294Z,90.61
2023-01-11T13:48:25.644Z,91.61
2023-01-11T13:50:00.756Z,90.82
2023-01-11T13:51:34.902Z,91.00
2023-01-11T13:53:10.015Z,91.98
2023-01-11T13:54:45.965Z,91.92
2023-01-11T13:56:19.125Z,91.79
2023-01-11T13:57:52.521Z,92.25
2023-01-11T13:59:27.478Z,92.32
2023-01-11T14:01:02.199Z,91.99
2023-01-11T14:02:38.185Z,91.92
2023-01-11T14:04:12.452Z,91.62
2023-01-11T14:05:52.988Z,92.18
2023-01-11T14:07:30.471Z,92.36
2023-01-11T14:09:19.318Z,92.67
2023-01-11T14:10:55.368Z,93.02
2023-01-11T14:12:33.895Z,92.81
2023-01-11T14:14:18.064Z,93.19
2023-01-11T14:15:54.577Z,92.75
2023-01-11T14:17:33.221Z,93.33
2023-01-11T14:19:06.766Z,92.98
2023-01-11T14:20:43.448Z,93.27
2023-01-11T14:22:20.299Z,93.25
2023-01-11T14:23:52.577Z,93.36
2023-01-11T14:25:25.542Z,93.16
2023-01-11T14:27:11.873Z,92.90
2023-01-11T14:28:51.724Z,92.71
2023-01-11T14:30:31.468Z,93.34
2023-01-11T14:32:13.187Z,93.10
2023-01-11T14:34:23.857Z,93.12
2023-01-11T14:36:14.850Z,93.89
2023-01-11T14:38:22.439Z,93.37
2023-01-11T14:40:30.291Z,93.00
2023-01-11T14:42:30.493Z,92.67
2023-01-11T14:44:11.194Z,92.87
2023-01-11T14:45:53.082Z,92.82
2023-01-11T14:48:02.401Z,92.68
2023-01-11T14:49:41.989Z,93.69
2023-01-11T14:51:25.951Z,93.17
2023-01-11T14:53:00.612Z,92.92
2023-01-11T14:54:32.909Z,92.34
2023-01-11T14:56:05.080Z,92.51
2023-01-11T14:57:39.711Z,92.86
2023-01-11T14:59:22.816Z,92.38
2023-01-11T15:01:11.353Z,92.72
2023-01-11T15:02:43.560Z,92.68
2023-01-11T15:04:22.352Z,92.46
2023-01-11T15:05:55.019Z,93.09
2023-01-11T15:07:34.546Z,93.11
2023-01-11T15:09:06.171Z,93.00
2023-01-11T15:10:39.563Z,93.10
2023-01-11T15:12:11.837Z,92.92
2023-01-11T15:13:44.597Z,93.31
2023-01-11T15:15:18.413Z,93.16
2023-01-11T15:17:09.178Z,93.38
2023-01-11T15:18:42.914Z,93.29
2023-01-11T15:20:16.805Z,93.51
2023-01-11T15:21:48.412Z,93.18
2023-01-11T15:23:20.257Z,93.06
2023-01-11T15:24:55.713Z,92.92
2023-01-11T15:26:27.348Z,93.13
2023-01-11T15:27:59.611Z,93.12
2023-01-11T15:29:32.071Z,92.99
2023-01-11T15:31:04.124Z,93.54
2023-01-11T15:32:36.064Z,93.05
2023-01-11T15:34:24.653Z,93.28
2023-01-11T15:36:04.069Z,93.36
2023-01-11T15:37:48.255Z,93.74
2023-01-11T15:39:22.998Z,93.13
2023-01-11T15:40:54.687Z,92.64
2023-01-11T15:43:02.665Z,93.02
2023-01-11T15:44:42.134Z,93.04
2023-01-11T15:46:55.991Z,92.58
2023-01-11T15:48:31.462Z,93.01
2023-01-11T15:50:17.335Z,93.14
2023-01-11T15:52:00.863Z,93.07
2023-01-11T15:54:04.958Z,92.97
2023-01-11T15:56:07.264Z,93.26
2023-01-11T15:57:55.899Z,94.14
2023-01-11T15:59:50.204Z,93.63
2023-01-11T16:01:22.916Z,93.09
2023-01-11T16:03:17.381Z,93.29
2023-01-11T16:04:50.360Z,93.24
2023-01-11T16:06:28.134Z,93.05
2023-01-11T16:08:03.388Z,93.42
2023-01-11T16:09:52.144Z,93.43
2023-01-11T16:11:28.637Z,92.96
2023-01-11T16:13:05.652Z,93.24
2023-01-11T16:15:00.194Z,93.16
2023-01-11T16:16:33.367Z,93.59
2023-01-11T16:18:11.785Z,93.12
2023-01-11T16:19:43.807Z,93.33
2023-01-11T16:21:18.040Z,93.44
2023-01-11T16:22:51.598Z,93.50
2023-01-11T16:24:26.814Z,93.52
2023-01-11T16:25:58.683Z,93.44
2023-01-11T16:27:32.720Z,93.42
2023-01-11T16:29:07.441Z,93.83
2023-01-11T16:30:39.601Z,93.51
2023-01-11T16:32:19.573Z,93.61
2023-01-11T16:33:52.362Z,93.52
2023-01-11T16:35:24.892Z,93.24
2023-01-11T16:36:57.597Z,93.43
2023-01-11T16:38:29.183Z,93.87
2023-01-11T16:40:04.472Z,93.95
2023-01-11T16:41:38.376Z,93.28
2023-01-11T16:43:16.905Z,93.92
2023-01-11T16:44:50.272Z,93.38
2023-01-11T16:46:54.225Z,93.29
2023-01-11T16:48:26.276Z,93.06
2023-01-11T16:50:14.719Z,93.42
2023-01-11T16:51:47.667Z,93.12
2023-01-11T16:53:20.770Z,93.05
2023-01-11T16:54:52.389Z,93.03
2023-01-11T16:56:25.392Z,93.62
2023-01-11T16:57:58.424Z,93.75
2023-01-11T16:59:34.874Z,93.84
2023-01-11T17:01:07.681Z,93.42
2023-01-11T17:02:42.671Z,92.91
2023-01-11T17:04:27.196Z,92.98
2023-01-11T17:06:01.988Z,92.44
2023-01-11T17:07:33.526Z,92.90
2023-01-11T17:09:10.877Z,92.40
2023-01-11T17:10:45.043Z,92.73
2023-01-11T17:12:19.041Z,93.32
2023-01-11T17:14:18.849Z,93.53
2023-01-11T17:15:51.839Z,93.40
2023-01-11T17:17:28.062Z,94.01
2023-01-11T17:19:01.519Z,94.34
2023-01-11T17:20:33.424Z,94.26
2023-01-11T17:22:06.373Z,94.50
2023-01-11T17:23:38.008Z,94.47
2023-01-11T17:25:17.036Z,94.34
2023-01-11T17:27:13.897Z,94.74
2023-01-11T17:30:48.426Z,93.83
2023-01-11T17:32:22.356Z,93.50
2023-01-11T17:34:00.543Z,93.59
2023-01-11T17:35:35.154Z,93.49
2023-01-11T17:37:10.819Z,93.84
2023-01-11T17:39:03.117Z,93.37
2023-01-11T17:40:36.235Z,93.83
2023-01-11T17:42:29.409Z,93.97
2023-01-11T17:44:19.917Z,94.10
2023-01-11T17:45:57.101Z,94.18
2023-01-11T17:47:29.064Z,93.84
2023-01-11T17:49:00.716Z,94.06
2023-01-11T17:50:36.083Z,94.00
2023-01-11T17:52:11.286Z,94.14
2023-01-11T17:53:43.368Z,94.42
2023-01-11T17:55:21.186Z,94.85
2023-01-11T17:56:55.675Z,94.53
2023-01-11T17:58:36.706Z,93.93
2023-01-11T18:00:32.452Z,93.90
2023-01-11T18:02:11.138Z,94.18
2023-01-11T18:03:43.631Z,93.85
2023-01-11T18:05:16.567Z,94.13
2023-01-11T18:06:48.885Z,94.14
2023-01-11T18:08:21.274Z,94.12
2023-01-11T18:09:59.007Z,94.44
2023-01-11T18:11:34.187Z,94.43
2023-01-11T18:13:05.854Z,93.81
2023-01-11T18:14:39.477Z,93.69
2023-01-11T18:16:11.168Z,93.80
2023-01-11T18:17:44.121Z,93.90
2023-01-11T18:19:23.876Z,93.27
2023-01-11T18:20:55.516Z,93.50
2023-01-11T18:22:30.616Z,92.99
2023-01-11T18:24:35.937Z,93.00
2023-01-11T18:26:24.663Z,92.89
2023-01-11T18:28:21.185Z,92.86
2023-01-11T18:29:53.330Z,92.96
2023-01-11T18:31:24.959Z,93.10
2023-01-11T18:32:57.972Z,93.49
2023-01-11T18:34:29.952Z,92.56
2023-01-11T18:36:03.335Z,93.09
2023-01-11T18:37:35.039Z,93.07
2023-01-11T18:39:10.045Z,92.89
2023-01-11T18:40:41.688Z,92.92
2023-01-11T18:42:16.056Z,92.90
2023-01-11T18:43:47.663Z,92.32
2023-01-11T18:45:20.379Z,92.24
2023-01-11T18:46:52.003Z,92.28
2023-01-11T18:48:25.031Z,92.61
2023-01-11T18:49:56.744Z,92.48
2023-01-11T18:51:29.275Z,92.04
2023-01-11T18:53:00.962Z,92.87
2023-01-11T18:54:32.741Z,92.49
2023-01-11T18:56:04.947Z,92.30
2023-01-11T18:57:36.589Z,92.48
2023-01-11T18:59:08.203Z,93.08
2023-01-11T19:00:41.367Z,93.01
2023-01-11T19:03:56.390Z,93.29
2023-01-11T19:05:27.956Z,93.35
2023-01-11T19:06:59.556Z,93.41
2023-01-11T19:08:31.682Z,93.59
2023-01-11T19:10:03.630Z,93.57
2023-01-11T19:11:35.572Z,93.66
2023-01-11T19:13:07.317Z,93.14
2023-01-11T19:14:40.071Z,93.16
2023-01-11T19:16:11.714Z,93.28
2023-01-11T19:17:43.595Z,93.49
2023-01-11T19:19:16.613Z,93.38
2023-01-11T19:20:48.179Z,93.48
2023-01-11T19:22:22.001Z,93.45
2023-01-11T19:23:56.656Z,93.19
2023-01-11T19:25:28.443Z,93.21
2023-01-11T19:27:00.084Z,93.15
2023-01-11T19:28:31.748Z,93.20
2023-01-11T19:30:04.084Z,93.33
2023-01-11T19:31:35.758Z,93.43
2023-01-11T19:33:07.447Z,93.28
2023-01-11T19:34:40.576Z,92.99
2023-01-11T19:36:12.195Z,92.72
2023-01-11T19:37:43.901Z,92.43
2023-01-11T19:39:15.628Z,92.00
2023-01-11T19:40:49.614Z,91.76
2023-01-11T19:42:23.949Z,91.60
2023-01-11T19:43:55.616Z,91.19
2023-01-11T19:45:27.195Z,91.28
2023-01-11T19:47:10.359Z,91.23
2023-01-11T19:48:42.726Z,91.59
2023-01-11T19:50:17.267Z,91.19
2023-01-11T19:51:49.008Z,91.22
2023-01-11T19:53:20.660Z,91.35
2023-01-11T19:54:53.313Z,91.01
2023-01-11T19:56:24.971Z,91.29
2023-01-11T19:57:56.630Z,90.23
2023-01-11T19:59:28.224Z,90.16
2023-01-11T20:00:59.889Z,90.69
2023-01-11T20:02:31.897Z,90.35
2023-01-11T20:04:04.619Z,90.22
2023-01-11T20:05:37.737Z,91.29
2023-01-11T20:07:09.926Z,90.72
2023-01-11T20:08:41.978Z,90.29
2023-01-11T20:10:13.569Z,90.74
2023-01-11T20:11:45.284Z,90.37
2023-01-11T20:13:16.894Z,89.60
2023-01-11T20:14:48.572Z,90.03
2023-01-11T20:16:22.954Z,90.33
2023-01-11T20:17:54.698Z,91.03
2023-01-11T20:19:26.305Z,91.03
2023-01-11T20:20:59.467Z,91.36
2023-01-11T20:22:31.358Z,91.69
2023-01-11T20:24:03.043Z,91.85
2023-01-11T20:25:34.671Z,91.67
2023-01-11T20:27:06.371Z,91.61
2023-01-11T20:28:38.073Z,91.81
2023-01-11T20:30:10.675Z,91.55
2023-01-11T20:31:42.263Z,91.91
2023-01-11T20:33:13.892Z,91.15
2023-01-11T20:34:45.522Z,91.38
2023-01-11T20:36:18.526Z,91.55
2023-01-11T20:37:50.626Z,91.78
2023-01-11T20:39:22.214Z,91.75
2023-01-11T20:40:53.827Z,91.24
2023-01-11T20:42:25.507Z,90.86